Observations for PIACENZA IT-AFB, Italy (LIMS)

LIMS 201755Z 00000KT 4500 BR NSC 07/05 Q1023
LIMS 201755Z 00000KT 4500 BR NSC 07/05 Q1023 RMK FEW FEW200 VIS MIN 4500 WIND THR30 00000KT GRN
LIMS 201655Z 00000KT 4500 BR NSC 10/06 Q1023
LIMS 201655Z 00000KT 4500 BR NSC 10/06 Q1023 RMK FEW FEW200 VIS MIN 4500 WIND THR30 11003KT GRN
LIMS 201555Z 00000KT 6000 NSC 12/06 Q1022   
LIMS 201555Z 00000KT 6000 NSC 12/06 Q1022 RMK SCT SCT200 VIS MIN 6000 WIND THR30 14004KT WHT
LIMS 201455Z 10002KT 6000 NSC 13/06 Q1023   
LIMS 201455Z 10002KT 6000 NSC 13/06 Q1023 RMK SCT SCT200 VIS MIN 6000 WIND THR30 00000KT WHT
LIMS 201355Z 09001KT 6000 NSC 12/06 Q1023   
LIMS 201355Z 09001KT 6000 NSC 12/06 Q1023 RMK SCT SCT200 VIS MIN 6000 WIND THR30 00000KT WHT
LIMS 201255Z 00000KT 6000 NSC 11/07 Q1023   
LIMS 201255Z 00000KT 6000 NSC 11/07 Q1023 RMK SCT SCT200 VIS MIN 6000 WIND THR30 01001KT WHT
LIMS 201155Z 00000KT 4500 BR NSC 10/07 Q1024
LIMS 201155Z 00000KT 4500 BR NSC 10/07 Q1024 RMK FEW FEW200 VIS MIN 4500 WIND THR30 08001KT GRN
LIMS 201055Z 06001KT 2800 BR NSC 08/06 Q1024
LIMS 201055Z 06001KT 2800 BR NSC 08/06 Q1024 RMK SCT SCT200 VIS MIN 2800 WIND THR30 06002KT YLO
LIMS 200955Z 00000KT 2800 BR NSC 08/06 Q1024
LIMS 200955Z 00000KT 2800 BR NSC 08/06 Q1024 RMK FEW FEW200 VIS MIN 2800 WIND THR30 00000KT YLO
LIMS 200855Z 10002KT 2500 BR NSC 05/05 Q1024
LIMS 200855Z 10002KT 2500 BR NSC 05/05 Q1024 RMK FEW FEW200 VIS MIN 2500 WIND THR30 09003KT YLO
LIMS 200755Z 00000KT 7000 NSC 03/03 Q1024   
LIMS 200755Z 00000KT 7000 NSC 03/03 Q1024 RMK SCT SCT200 VIS MIN 7000 WIND THR30 000000KT WHT
LIMS 200655Z 00000KT CAVOK 01/01 Q1023  
LIMS 200655Z 00000KT CAVOK 01/01 Q1023 RMK SKC VIS MIN 9999 WIND THR30 00000KT BLU
LIMS 200555Z 24006KT CAVOK 03/03 Q1022  
LIMS 200555Z 24006KT CAVOK 03/03 Q1022 RMK SKC VIS MIN 9999 WIND THR30 00000KT BLU